<?xml version="1.0" encoding="UTF-8" standalone="no" ?>
<gpx xmlns="http://www.topografix.com/GPX/1/1" xmlns:xsi="http://www.w3.org/2001/XMLSchema-instance" xsi:schemaLocation="http://www.topografix.com/GPX/1/1 http://www.topografix.com/GPX/1/1/gpx.xsd" version="1.1" creator="VisuGPX - https://www.visugpx.com">
  <metadata>
    <name>13782499-Les 3 Croix col de la république GR3</name>
  </metadata>
  <trk>
    <name><![CDATA[13782499-Les 3 Croix col de la république GR3]]></name>
    <trkseg>
      <trkpt lat="45.32669" lon="4.4813">
        <ele>1144</ele>
        <time>2022-02-02T09:36:19Z</time>
      </trkpt>
      <trkpt lat="45.32663" lon="4.48128">
        <ele>1143</ele>
        <time>2022-02-02T09:36:27Z</time>
      </trkpt>
      <trkpt lat="45.32649" lon="4.48129">
        <ele>1143</ele>
        <time>2022-02-02T09:36:46Z</time>
      </trkpt>
      <trkpt lat="45.32623" lon="4.48136">
        <ele>1142</ele>
        <time>2022-02-02T09:37:21Z</time>
      </trkpt>
      <trkpt lat="45.3261" lon="4.48131">
        <ele>1142</ele>
        <time>2022-02-02T09:37:39Z</time>
      </trkpt>
      <trkpt lat="45.326" lon="4.48144">
        <ele>1141</ele>
        <time>2022-02-02T09:37:57Z</time>
      </trkpt>
      <trkpt lat="45.32558" lon="4.48166">
        <ele>1141</ele>
        <time>2022-02-02T09:38:57Z</time>
      </trkpt>
      <trkpt lat="45.3248" lon="4.48142">
        <ele>1152</ele>
        <time>2022-02-02T09:40:44Z</time>
      </trkpt>
      <trkpt lat="45.3246" lon="4.48117">
        <ele>1157</ele>
        <time>2022-02-02T09:41:19Z</time>
      </trkpt>
      <trkpt lat="45.32433" lon="4.48">
        <ele>1170</ele>
        <time>2022-02-02T09:43:15Z</time>
      </trkpt>
      <trkpt lat="45.32409" lon="4.47929">
        <ele>1171</ele>
        <time>2022-02-02T09:44:28Z</time>
      </trkpt>
      <trkpt lat="45.32293" lon="4.47805">
        <ele>1183</ele>
        <time>2022-02-02T09:47:42Z</time>
      </trkpt>
      <trkpt lat="45.3222" lon="4.4776">
        <ele>1190</ele>
        <time>2022-02-02T09:49:28Z</time>
      </trkpt>
      <trkpt lat="45.32158" lon="4.477">
        <ele>1192</ele>
        <time>2022-02-02T09:51:08Z</time>
      </trkpt>
      <trkpt lat="45.32101" lon="4.47658">
        <ele>1192</ele>
        <time>2022-02-02T09:52:34Z</time>
      </trkpt>
      <trkpt lat="45.32083" lon="4.47626">
        <ele>1191</ele>
        <time>2022-02-02T09:53:13Z</time>
      </trkpt>
      <trkpt lat="45.32072" lon="4.47579">
        <ele>1189</ele>
        <time>2022-02-02T09:53:59Z</time>
      </trkpt>
      <trkpt lat="45.32047" lon="4.47505">
        <ele>1187</ele>
        <time>2022-02-02T09:55:16Z</time>
      </trkpt>
      <trkpt lat="45.32031" lon="4.47475">
        <ele>1186</ele>
        <time>2022-02-02T09:55:51Z</time>
      </trkpt>
      <trkpt lat="45.31998" lon="4.47445">
        <ele>1184</ele>
        <time>2022-02-02T09:56:44Z</time>
      </trkpt>
      <trkpt lat="45.3198" lon="4.47412">
        <ele>1181</ele>
        <time>2022-02-02T09:57:23Z</time>
      </trkpt>
      <trkpt lat="45.31971" lon="4.47372">
        <ele>1181</ele>
        <time>2022-02-02T09:58:02Z</time>
      </trkpt>
      <trkpt lat="45.31954" lon="4.47266">
        <ele>1181</ele>
        <time>2022-02-02T09:59:44Z</time>
      </trkpt>
      <trkpt lat="45.31935" lon="4.47226">
        <ele>1182</ele>
        <time>2022-02-02T10:00:30Z</time>
      </trkpt>
      <trkpt lat="45.31905" lon="4.47197">
        <ele>1185</ele>
        <time>2022-02-02T10:01:18Z</time>
      </trkpt>
      <trkpt lat="45.31865" lon="4.47138">
        <ele>1186</ele>
        <time>2022-02-02T10:02:35Z</time>
      </trkpt>
      <trkpt lat="45.31773" lon="4.47027">
        <ele>1183</ele>
        <time>2022-02-02T10:05:16Z</time>
      </trkpt>
      <trkpt lat="45.31755" lon="4.46987">
        <ele>1180</ele>
        <time>2022-02-02T10:06:00Z</time>
      </trkpt>
      <trkpt lat="45.31745" lon="4.46948">
        <ele>1177</ele>
        <time>2022-02-02T10:06:39Z</time>
      </trkpt>
      <trkpt lat="45.31739" lon="4.46898">
        <ele>1172</ele>
        <time>2022-02-02T10:07:27Z</time>
      </trkpt>
      <trkpt lat="45.31735" lon="4.46861">
        <ele>1169</ele>
        <time>2022-02-02T10:08:02Z</time>
      </trkpt>
      <trkpt lat="45.31721" lon="4.46837">
        <ele>1167</ele>
        <time>2022-02-02T10:08:31Z</time>
      </trkpt>
      <trkpt lat="45.31693" lon="4.46799">
        <ele>1164</ele>
        <time>2022-02-02T10:09:23Z</time>
      </trkpt>
      <trkpt lat="45.3168" lon="4.46764">
        <ele>1161</ele>
        <time>2022-02-02T10:10:00Z</time>
      </trkpt>
      <trkpt lat="45.31674" lon="4.46724">
        <ele>1157</ele>
        <time>2022-02-02T10:10:39Z</time>
      </trkpt>
      <trkpt lat="45.31649" lon="4.46634">
        <ele>1148</ele>
        <time>2022-02-02T10:12:09Z</time>
      </trkpt>
      <trkpt lat="45.31639" lon="4.4658">
        <ele>1148</ele>
        <time>2022-02-02T10:13:02Z</time>
      </trkpt>
      <trkpt lat="45.31632" lon="4.46561">
        <ele>1149</ele>
        <time>2022-02-02T10:13:22Z</time>
      </trkpt>
      <trkpt lat="45.31625" lon="4.46549">
        <ele>1150</ele>
        <time>2022-02-02T10:13:36Z</time>
      </trkpt>
      <trkpt lat="45.31616" lon="4.46539">
        <ele>1150</ele>
        <time>2022-02-02T10:13:52Z</time>
      </trkpt>
      <trkpt lat="45.31635" lon="4.4653">
        <ele>1150</ele>
        <time>2022-02-02T10:14:18Z</time>
      </trkpt>
      <trkpt lat="45.31693" lon="4.46526">
        <ele>1148</ele>
        <time>2022-02-02T10:15:36Z</time>
      </trkpt>
      <trkpt lat="45.31736" lon="4.46526">
        <ele>1147</ele>
        <time>2022-02-02T10:16:33Z</time>
      </trkpt>
      <trkpt lat="45.31784" lon="4.46519">
        <ele>1146</ele>
        <time>2022-02-02T10:17:38Z</time>
      </trkpt>
      <trkpt lat="45.31853" lon="4.46511">
        <ele>1147</ele>
        <time>2022-02-02T10:19:10Z</time>
      </trkpt>
      <trkpt lat="45.31903" lon="4.46501">
        <ele>1149</ele>
        <time>2022-02-02T10:20:17Z</time>
      </trkpt>
      <trkpt lat="45.31931" lon="4.46492">
        <ele>1151</ele>
        <time>2022-02-02T10:20:56Z</time>
      </trkpt>
      <trkpt lat="45.3196" lon="4.46465">
        <ele>1152</ele>
        <time>2022-02-02T10:21:42Z</time>
      </trkpt>
      <trkpt lat="45.31975" lon="4.46448">
        <ele>1151</ele>
        <time>2022-02-02T10:22:08Z</time>
      </trkpt>
      <trkpt lat="45.32002" lon="4.46407">
        <ele>1150</ele>
        <time>2022-02-02T10:23:00Z</time>
      </trkpt>
      <trkpt lat="45.32017" lon="4.46382">
        <ele>1149</ele>
        <time>2022-02-02T10:23:31Z</time>
      </trkpt>
      <trkpt lat="45.32055" lon="4.46335">
        <ele>1147</ele>
        <time>2022-02-02T10:24:38Z</time>
      </trkpt>
      <trkpt lat="45.32115" lon="4.46246">
        <ele>1145</ele>
        <time>2022-02-02T10:26:34Z</time>
      </trkpt>
      <trkpt lat="45.32143" lon="4.46223">
        <ele>1145</ele>
        <time>2022-02-02T10:27:17Z</time>
      </trkpt>
      <trkpt lat="45.32194" lon="4.46173">
        <ele>1143</ele>
        <time>2022-02-02T10:28:40Z</time>
      </trkpt>
      <trkpt lat="45.32292" lon="4.46087">
        <ele>1139</ele>
        <time>2022-02-02T10:31:14Z</time>
      </trkpt>
      <trkpt lat="45.3235" lon="4.46008">
        <ele>1141</ele>
        <time>2022-02-02T10:33:01Z</time>
      </trkpt>
      <trkpt lat="45.32368" lon="4.45993">
        <ele>1140</ele>
        <time>2022-02-02T10:33:29Z</time>
      </trkpt>
      <trkpt lat="45.32416" lon="4.45941">
        <ele>1137</ele>
        <time>2022-02-02T10:34:49Z</time>
      </trkpt>
      <trkpt lat="45.32441" lon="4.45902">
        <ele>1135</ele>
        <time>2022-02-02T10:35:39Z</time>
      </trkpt>
      <trkpt lat="45.32463" lon="4.45853">
        <ele>1133</ele>
        <time>2022-02-02T10:36:33Z</time>
      </trkpt>
      <trkpt lat="45.32491" lon="4.4581">
        <ele>1129</ele>
        <time>2022-02-02T10:37:28Z</time>
      </trkpt>
      <trkpt lat="45.32538" lon="4.45718">
        <ele>1114</ele>
        <time>2022-02-02T10:39:15Z</time>
      </trkpt>
      <trkpt lat="45.32546" lon="4.45686">
        <ele>1110</ele>
        <time>2022-02-02T10:39:47Z</time>
      </trkpt>
      <trkpt lat="45.32559" lon="4.45643">
        <ele>1104</ele>
        <time>2022-02-02T10:40:31Z</time>
      </trkpt>
      <trkpt lat="45.32576" lon="4.45643">
        <ele>1100</ele>
        <time>2022-02-02T10:40:53Z</time>
      </trkpt>
      <trkpt lat="45.32609" lon="4.45648">
        <ele>1091</ele>
        <time>2022-02-02T10:41:38Z</time>
      </trkpt>
      <trkpt lat="45.32663" lon="4.4574">
        <ele>1078</ele>
        <time>2022-02-02T10:43:30Z</time>
      </trkpt>
      <trkpt lat="45.32705" lon="4.45731">
        <ele>1069</ele>
        <time>2022-02-02T10:44:27Z</time>
      </trkpt>
      <trkpt lat="45.32728" lon="4.45743">
        <ele>1066</ele>
        <time>2022-02-02T10:44:59Z</time>
      </trkpt>
      <trkpt lat="45.32751" lon="4.4574">
        <ele>1061</ele>
        <time>2022-02-02T10:45:30Z</time>
      </trkpt>
      <trkpt lat="45.3275" lon="4.4575">
        <ele>1062</ele>
        <time>2022-02-02T10:45:40Z</time>
      </trkpt>
      <trkpt lat="45.32754" lon="4.45725">
        <ele>1060</ele>
        <time>2022-02-02T10:46:04Z</time>
      </trkpt>
      <trkpt lat="45.3276" lon="4.45711">
        <ele>1059</ele>
        <time>2022-02-02T10:46:19Z</time>
      </trkpt>
      <trkpt lat="45.3277" lon="4.45696">
        <ele>1057</ele>
        <time>2022-02-02T10:46:39Z</time>
      </trkpt>
      <trkpt lat="45.32791" lon="4.4565">
        <ele>1052</ele>
        <time>2022-02-02T10:47:30Z</time>
      </trkpt>
      <trkpt lat="45.32814" lon="4.45674">
        <ele>1050</ele>
        <time>2022-02-02T10:48:08Z</time>
      </trkpt>
      <trkpt lat="45.32851" lon="4.45641">
        <ele>1045</ele>
        <time>2022-02-02T10:49:06Z</time>
      </trkpt>
      <trkpt lat="45.3286" lon="4.45628">
        <ele>1044</ele>
        <time>2022-02-02T10:49:23Z</time>
      </trkpt>
      <trkpt lat="45.32876" lon="4.45595">
        <ele>1043</ele>
        <time>2022-02-02T10:50:01Z</time>
      </trkpt>
      <trkpt lat="45.3289" lon="4.45579">
        <ele>1042</ele>
        <time>2022-02-02T10:50:25Z</time>
      </trkpt>
      <trkpt lat="45.32937" lon="4.4559">
        <ele>1036</ele>
        <time>2022-02-02T10:51:29Z</time>
      </trkpt>
      <trkpt lat="45.32948" lon="4.45619">
        <ele>1035</ele>
        <time>2022-02-02T10:51:59Z</time>
      </trkpt>
      <trkpt lat="45.32997" lon="4.45727">
        <ele>1034</ele>
        <time>2022-02-02T10:54:00Z</time>
      </trkpt>
      <trkpt lat="45.33013" lon="4.45773">
        <ele>1032</ele>
        <time>2022-02-02T10:54:48Z</time>
      </trkpt>
      <trkpt lat="45.33007" lon="4.45899">
        <ele>1029</ele>
        <time>2022-02-02T10:56:47Z</time>
      </trkpt>
      <trkpt lat="45.33014" lon="4.45999">
        <ele>1023</ele>
        <time>2022-02-02T10:58:21Z</time>
      </trkpt>
      <trkpt lat="45.32999" lon="4.46078">
        <ele>1021</ele>
        <time>2022-02-02T10:59:38Z</time>
      </trkpt>
      <trkpt lat="45.33006" lon="4.46126">
        <ele>1025</ele>
        <time>2022-02-02T11:00:24Z</time>
      </trkpt>
      <trkpt lat="45.33001" lon="4.46171">
        <ele>1030</ele>
        <time>2022-02-02T11:01:06Z</time>
      </trkpt>
      <trkpt lat="45.3303" lon="4.46175">
        <ele>1032</ele>
        <time>2022-02-02T11:01:45Z</time>
      </trkpt>
      <trkpt lat="45.33083" lon="4.4617">
        <ele>1035</ele>
        <time>2022-02-02T11:02:56Z</time>
      </trkpt>
      <trkpt lat="45.33103" lon="4.46188">
        <ele>1039</ele>
        <time>2022-02-02T11:03:28Z</time>
      </trkpt>
      <trkpt lat="45.33124" lon="4.46213">
        <ele>1045</ele>
        <time>2022-02-02T11:04:04Z</time>
      </trkpt>
      <trkpt lat="45.33218" lon="4.46267">
        <ele>1052</ele>
        <time>2022-02-02T11:06:20Z</time>
      </trkpt>
      <trkpt lat="45.33232" lon="4.46297">
        <ele>1054</ele>
        <time>2022-02-02T11:06:53Z</time>
      </trkpt>
      <trkpt lat="45.33257" lon="4.46396">
        <ele>1062</ele>
        <time>2022-02-02T11:08:32Z</time>
      </trkpt>
      <trkpt lat="45.33306" lon="4.46486">
        <ele>1066</ele>
        <time>2022-02-02T11:10:19Z</time>
      </trkpt>
      <trkpt lat="45.3338" lon="4.46605">
        <ele>1073</ele>
        <time>2022-02-02T11:12:48Z</time>
      </trkpt>
      <trkpt lat="45.33414" lon="4.46614">
        <ele>1073</ele>
        <time>2022-02-02T11:13:34Z</time>
      </trkpt>
      <trkpt lat="45.33433" lon="4.46615">
        <ele>1072</ele>
        <time>2022-02-02T11:13:59Z</time>
      </trkpt>
      <trkpt lat="45.33487" lon="4.467">
        <ele>1085</ele>
        <time>2022-02-02T11:15:47Z</time>
      </trkpt>
      <trkpt lat="45.33522" lon="4.46789">
        <ele>1100</ele>
        <time>2022-02-02T11:17:23Z</time>
      </trkpt>
      <trkpt lat="45.33637" lon="4.46782">
        <ele>1108</ele>
        <time>2022-02-02T11:19:56Z</time>
      </trkpt>
      <trkpt lat="45.33644" lon="4.4675">
        <ele>1103</ele>
        <time>2022-02-02T11:20:28Z</time>
      </trkpt>
      <trkpt lat="45.33727" lon="4.46637">
        <ele>1092</ele>
        <time>2022-02-02T11:23:01Z</time>
      </trkpt>
      <trkpt lat="45.33768" lon="4.4657">
        <ele>1081</ele>
        <time>2022-02-02T11:24:24Z</time>
      </trkpt>
      <trkpt lat="45.33815" lon="4.46543">
        <ele>1075</ele>
        <time>2022-02-02T11:25:32Z</time>
      </trkpt>
      <trkpt lat="45.33842" lon="4.46495">
        <ele>1067</ele>
        <time>2022-02-02T11:26:30Z</time>
      </trkpt>
      <trkpt lat="45.33861" lon="4.4649">
        <ele>1065</ele>
        <time>2022-02-02T11:26:55Z</time>
      </trkpt>
      <trkpt lat="45.33897" lon="4.46516">
        <ele>1066</ele>
        <time>2022-02-02T11:27:49Z</time>
      </trkpt>
      <trkpt lat="45.33948" lon="4.46621">
        <ele>1071</ele>
        <time>2022-02-02T11:29:49Z</time>
      </trkpt>
      <trkpt lat="45.34029" lon="4.47097">
        <ele>1089</ele>
        <time>2022-02-02T11:37:28Z</time>
      </trkpt>
      <trkpt lat="45.34044" lon="4.47173">
        <ele>1090</ele>
        <time>2022-02-02T11:38:42Z</time>
      </trkpt>
      <trkpt lat="45.34138" lon="4.4736">
        <ele>1087</ele>
        <time>2022-02-02T11:42:18Z</time>
      </trkpt>
      <trkpt lat="45.34151" lon="4.47407">
        <ele>1087</ele>
        <time>2022-02-02T11:43:05Z</time>
      </trkpt>
      <trkpt lat="45.3416" lon="4.47509">
        <ele>1089</ele>
        <time>2022-02-02T11:44:42Z</time>
      </trkpt>
      <trkpt lat="45.34133" lon="4.47618">
        <ele>1102</ele>
        <time>2022-02-02T11:46:30Z</time>
      </trkpt>
      <trkpt lat="45.34133" lon="4.47635">
        <ele>1103</ele>
        <time>2022-02-02T11:46:46Z</time>
      </trkpt>
      <trkpt lat="45.34141" lon="4.47649">
        <ele>1102</ele>
        <time>2022-02-02T11:47:03Z</time>
      </trkpt>
      <trkpt lat="45.34169" lon="4.47649">
        <ele>1097</ele>
        <time>2022-02-02T11:47:40Z</time>
      </trkpt>
      <trkpt lat="45.34206" lon="4.4766">
        <ele>1094</ele>
        <time>2022-02-02T11:48:31Z</time>
      </trkpt>
      <trkpt lat="45.34237" lon="4.47686">
        <ele>1096</ele>
        <time>2022-02-02T11:49:19Z</time>
      </trkpt>
      <trkpt lat="45.34247" lon="4.47691">
        <ele>1096</ele>
        <time>2022-02-02T11:49:33Z</time>
      </trkpt>
      <trkpt lat="45.34398" lon="4.47895">
        <ele>1106</ele>
        <time>2022-02-02T11:54:11Z</time>
      </trkpt>
      <trkpt lat="45.34405" lon="4.48031">
        <ele>1111</ele>
        <time>2022-02-02T11:56:19Z</time>
      </trkpt>
      <trkpt lat="45.34402" lon="4.48045">
        <ele>1111</ele>
        <time>2022-02-02T11:56:33Z</time>
      </trkpt>
      <trkpt lat="45.34395" lon="4.48067">
        <ele>1113</ele>
        <time>2022-02-02T11:56:55Z</time>
      </trkpt>
      <trkpt lat="45.34392" lon="4.48085">
        <ele>1115</ele>
        <time>2022-02-02T11:57:13Z</time>
      </trkpt>
      <trkpt lat="45.3439" lon="4.48129">
        <ele>1115</ele>
        <time>2022-02-02T11:57:54Z</time>
      </trkpt>
      <trkpt lat="45.34376" lon="4.48187">
        <ele>1119</ele>
        <time>2022-02-02T11:58:51Z</time>
      </trkpt>
      <trkpt lat="45.34376" lon="4.48251">
        <ele>1119</ele>
        <time>2022-02-02T11:59:52Z</time>
      </trkpt>
      <trkpt lat="45.3436" lon="4.48305">
        <ele>1122</ele>
        <time>2022-02-02T12:00:46Z</time>
      </trkpt>
      <trkpt lat="45.34337" lon="4.48368">
        <ele>1124</ele>
        <time>2022-02-02T12:01:53Z</time>
      </trkpt>
      <trkpt lat="45.34305" lon="4.48406">
        <ele>1127</ele>
        <time>2022-02-02T12:02:49Z</time>
      </trkpt>
      <trkpt lat="45.3427" lon="4.48432">
        <ele>1128</ele>
        <time>2022-02-02T12:03:41Z</time>
      </trkpt>
      <trkpt lat="45.34229" lon="4.48454">
        <ele>1129</ele>
        <time>2022-02-02T12:04:40Z</time>
      </trkpt>
      <trkpt lat="45.34199" lon="4.48498">
        <ele>1126</ele>
        <time>2022-02-02T12:05:37Z</time>
      </trkpt>
      <trkpt lat="45.34167" lon="4.4852">
        <ele>1128</ele>
        <time>2022-02-02T12:06:25Z</time>
      </trkpt>
      <trkpt lat="45.34151" lon="4.48545">
        <ele>1131</ele>
        <time>2022-02-02T12:06:56Z</time>
      </trkpt>
      <trkpt lat="45.34136" lon="4.4861">
        <ele>1135</ele>
        <time>2022-02-02T12:08:01Z</time>
      </trkpt>
      <trkpt lat="45.34142" lon="4.48671">
        <ele>1135</ele>
        <time>2022-02-02T12:08:58Z</time>
      </trkpt>
      <trkpt lat="45.34128" lon="4.48728">
        <ele>1140</ele>
        <time>2022-02-02T12:09:55Z</time>
      </trkpt>
      <trkpt lat="45.34133" lon="4.48875">
        <ele>1151</ele>
        <time>2022-02-02T12:12:13Z</time>
      </trkpt>
      <trkpt lat="45.34144" lon="4.48996">
        <ele>1162</ele>
        <time>2022-02-02T12:14:08Z</time>
      </trkpt>
      <trkpt lat="45.34148" lon="4.49118">
        <ele>1170</ele>
        <time>2022-02-02T12:16:02Z</time>
      </trkpt>
      <trkpt lat="45.34164" lon="4.49212">
        <ele>1176</ele>
        <time>2022-02-02T12:17:33Z</time>
      </trkpt>
      <trkpt lat="45.34184" lon="4.49274">
        <ele>1181</ele>
        <time>2022-02-02T12:18:37Z</time>
      </trkpt>
      <trkpt lat="45.34179" lon="4.49332">
        <ele>1187</ele>
        <time>2022-02-02T12:19:32Z</time>
      </trkpt>
      <trkpt lat="45.34183" lon="4.49344">
        <ele>1188</ele>
        <time>2022-02-02T12:19:44Z</time>
      </trkpt>
      <trkpt lat="45.34157" lon="4.4942">
        <ele>1199</ele>
        <time>2022-02-02T12:21:03Z</time>
      </trkpt>
      <trkpt lat="45.34154" lon="4.49461">
        <ele>1202</ele>
        <time>2022-02-02T12:21:42Z</time>
      </trkpt>
      <trkpt lat="45.34075" lon="4.49599">
        <ele>1222</ele>
        <time>2022-02-02T12:24:29Z</time>
      </trkpt>
      <trkpt lat="45.34118" lon="4.49709">
        <ele>1223</ele>
        <time>2022-02-02T12:26:27Z</time>
      </trkpt>
      <trkpt lat="45.34105" lon="4.49734">
        <ele>1226</ele>
        <time>2022-02-02T12:26:56Z</time>
      </trkpt>
      <trkpt lat="45.34041" lon="4.49737">
        <ele>1233</ele>
        <time>2022-02-02T12:28:22Z</time>
      </trkpt>
      <trkpt lat="45.33991" lon="4.49775">
        <ele>1240</ele>
        <time>2022-02-02T12:29:37Z</time>
      </trkpt>
      <trkpt lat="45.33946" lon="4.49816">
        <ele>1244</ele>
        <time>2022-02-02T12:30:49Z</time>
      </trkpt>
      <trkpt lat="45.33924" lon="4.49864">
        <ele>1246</ele>
        <time>2022-02-02T12:31:42Z</time>
      </trkpt>
      <trkpt lat="45.33856" lon="4.49966">
        <ele>1249</ele>
        <time>2022-02-02T12:33:54Z</time>
      </trkpt>
      <trkpt lat="45.33834" lon="4.49923">
        <ele>1253</ele>
        <time>2022-02-02T12:34:44Z</time>
      </trkpt>
      <trkpt lat="45.33808" lon="4.49878">
        <ele>1254</ele>
        <time>2022-02-02T12:35:39Z</time>
      </trkpt>
      <trkpt lat="45.33771" lon="4.49826">
        <ele>1256</ele>
        <time>2022-02-02T12:36:48Z</time>
      </trkpt>
      <trkpt lat="45.33759" lon="4.49804">
        <ele>1255</ele>
        <time>2022-02-02T12:37:14Z</time>
      </trkpt>
      <trkpt lat="45.33752" lon="4.49734">
        <ele>1255</ele>
        <time>2022-02-02T12:38:21Z</time>
      </trkpt>
      <trkpt lat="45.33745" lon="4.49711">
        <ele>1256</ele>
        <time>2022-02-02T12:38:44Z</time>
      </trkpt>
      <trkpt lat="45.33727" lon="4.49683">
        <ele>1257</ele>
        <time>2022-02-02T12:39:20Z</time>
      </trkpt>
      <trkpt lat="45.33703" lon="4.49656">
        <ele>1257</ele>
        <time>2022-02-02T12:40:01Z</time>
      </trkpt>
      <trkpt lat="45.33679" lon="4.49643">
        <ele>1257</ele>
        <time>2022-02-02T12:40:35Z</time>
      </trkpt>
      <trkpt lat="45.33649" lon="4.49642">
        <ele>1258</ele>
        <time>2022-02-02T12:41:15Z</time>
      </trkpt>
      <trkpt lat="45.33611" lon="4.49636">
        <ele>1259</ele>
        <time>2022-02-02T12:42:06Z</time>
      </trkpt>
      <trkpt lat="45.33585" lon="4.49622">
        <ele>1260</ele>
        <time>2022-02-02T12:42:43Z</time>
      </trkpt>
      <trkpt lat="45.3354" lon="4.49586">
        <ele>1261</ele>
        <time>2022-02-02T12:43:52Z</time>
      </trkpt>
      <trkpt lat="45.33513" lon="4.49573">
        <ele>1262</ele>
        <time>2022-02-02T12:44:30Z</time>
      </trkpt>
      <trkpt lat="45.33493" lon="4.49547">
        <ele>1262</ele>
        <time>2022-02-02T12:45:06Z</time>
      </trkpt>
      <trkpt lat="45.3347" lon="4.49509">
        <ele>1264</ele>
        <time>2022-02-02T12:45:53Z</time>
      </trkpt>
      <trkpt lat="45.33442" lon="4.49424">
        <ele>1261</ele>
        <time>2022-02-02T12:47:21Z</time>
      </trkpt>
      <trkpt lat="45.33336" lon="4.49257">
        <ele>1259</ele>
        <time>2022-02-02T12:50:52Z</time>
      </trkpt>
      <trkpt lat="45.33319" lon="4.49197">
        <ele>1257</ele>
        <time>2022-02-02T12:51:53Z</time>
      </trkpt>
      <trkpt lat="45.33308" lon="4.49116">
        <ele>1255</ele>
        <time>2022-02-02T12:53:10Z</time>
      </trkpt>
      <trkpt lat="45.3328" lon="4.4905">
        <ele>1253</ele>
        <time>2022-02-02T12:54:23Z</time>
      </trkpt>
      <trkpt lat="45.33222" lon="4.49">
        <ele>1249</ele>
        <time>2022-02-02T12:55:53Z</time>
      </trkpt>
      <trkpt lat="45.3318" lon="4.48968">
        <ele>1244</ele>
        <time>2022-02-02T12:56:57Z</time>
      </trkpt>
      <trkpt lat="45.33162" lon="4.48952">
        <ele>1242</ele>
        <time>2022-02-02T12:57:25Z</time>
      </trkpt>
      <trkpt lat="45.33087" lon="4.48802">
        <ele>1234</ele>
        <time>2022-02-02T13:00:18Z</time>
      </trkpt>
      <trkpt lat="45.33051" lon="4.48756">
        <ele>1231</ele>
        <time>2022-02-02T13:01:22Z</time>
      </trkpt>
      <trkpt lat="45.33039" lon="4.48725">
        <ele>1230</ele>
        <time>2022-02-02T13:01:55Z</time>
      </trkpt>
      <trkpt lat="45.33" lon="4.4867">
        <ele>1228</ele>
        <time>2022-02-02T13:03:09Z</time>
      </trkpt>
      <trkpt lat="45.32967" lon="4.48668">
        <ele>1225</ele>
        <time>2022-02-02T13:03:53Z</time>
      </trkpt>
      <trkpt lat="45.32916" lon="4.48667">
        <ele>1220</ele>
        <time>2022-02-02T13:05:01Z</time>
      </trkpt>
      <trkpt lat="45.32842" lon="4.4871">
        <ele>1209</ele>
        <time>2022-02-02T13:06:48Z</time>
      </trkpt>
      <trkpt lat="45.32815" lon="4.48721">
        <ele>1206</ele>
        <time>2022-02-02T13:07:25Z</time>
      </trkpt>
      <trkpt lat="45.32794" lon="4.48723">
        <ele>1202</ele>
        <time>2022-02-02T13:07:53Z</time>
      </trkpt>
      <trkpt lat="45.32755" lon="4.48594">
        <ele>1189</ele>
        <time>2022-02-02T13:10:05Z</time>
      </trkpt>
      <trkpt lat="45.32755" lon="4.48511">
        <ele>1182</ele>
        <time>2022-02-02T13:11:23Z</time>
      </trkpt>
      <trkpt lat="45.32758" lon="4.48454">
        <ele>1178</ele>
        <time>2022-02-02T13:12:16Z</time>
      </trkpt>
      <trkpt lat="45.32767" lon="4.48383">
        <ele>1175</ele>
        <time>2022-02-02T13:13:24Z</time>
      </trkpt>
      <trkpt lat="45.32759" lon="4.48278">
        <ele>1170</ele>
        <time>2022-02-02T13:15:03Z</time>
      </trkpt>
      <trkpt lat="45.3273" lon="4.48224">
        <ele>1161</ele>
        <time>2022-02-02T13:16:07Z</time>
      </trkpt>
      <trkpt lat="45.32685" lon="4.48161">
        <ele>1148</ele>
        <time>2022-02-02T13:17:31Z</time>
      </trkpt>
    </trkseg>
  </trk>
</gpx>